Time;durP1;ratioP1;P1;durP2;ratioP2;P2;SDS_P1;SDS_P2;PMS_P1;PMS_P2;Temp;Humidity;BMP_temperature;BMP_pressure;BME280_temperature;BME280_humidity;BME280_pressure;Samples;Min_cycle;Max_cycle;Signal;HPM_P1;HPM_P2
2024/01/22 00:04:57;;;;;;;6.05;2.90;;;;;;;;;;10237824;28;20413;-88
2024/01/22 00:10:00;;;;;;;6.05;3.60;;;;;;;;;;10257536;28;20110;-88
2024/01/22 00:15:08;;;;;;;6.00;3.30;;;;;;;;;;10240992;29;20457;-88
2024/01/22 00:20:13;;;;;;;7.80;3.30;;;;;;;;;;10241581;28;20051;-88
2024/01/22 00:25:17;;;;;;;7.47;2.95;;;;;;;;;;10243850;28;20122;-87
2024/01/22 00:30:20;;;;;;;4.35;2.40;;;;;;;;;;10239960;28;20047;-89
2024/01/22 00:35:25;;;;;;;4.85;2.53;;;;;;;;;;10244329;28;20058;-88
2024/01/22 00:40:28;;;;;;;4.25;2.35;;;;;;;;;;10247795;28;20051;-88
2024/01/22 00:45:32;;;;;;;6.43;2.58;;;;;;;;;;10257604;28;20516;-88
2024/01/22 00:50:37;;;;;;;2.65;1.92;;;;;;;;;;10243879;28;20087;-88
2024/01/22 00:55:40;;;;;;;6.07;2.83;;;;;;;;;;10247810;28;20051;-87
2024/01/22 01:00:44;;;;;;;5.45;2.67;;;;;;;;;;10238741;28;20052;-88
2024/01/22 01:05:49;;;;;;;4.90;2.22;;;;;;;;;;10274366;28;20051;-87
2024/01/22 01:10:52;;;;;;;6.57;2.40;;;;;;;;;;10241587;28;20058;-88
2024/01/22 01:15:55;;;;;;;3.97;2.08;;;;;;;;;;10252756;28;20051;-88
2024/01/22 01:21:00;;;;;;;2.83;1.55;;;;;;;;;;10242330;28;20062;-88
2024/01/22 01:26:04;;;;;;;3.42;1.83;;;;;;;;;;10248163;28;20047;-88
2024/01/22 01:31:07;;;;;;;3.72;1.80;;;;;;;;;;10240807;28;20612;-88
2024/01/22 01:36:12;;;;;;;3.95;1.98;;;;;;;;;;10230676;28;20107;-88
2024/01/22 01:41:15;;;;;;;6.53;2.40;;;;;;;;;;10243935;28;20047;-88
2024/01/22 01:46:19;;;;;;;4.38;1.77;;;;;;;;;;10237860;28;20059;-88
2024/01/22 01:51:24;;;;;;;3.38;1.63;;;;;;;;;;10244248;28;20579;-88
2024/01/22 01:56:28;;;;;;;3.53;1.33;;;;;;;;;;10236714;29;20047;-89
2024/01/22 02:01:31;;;;;;;2.17;1.50;;;;;;;;;;10242573;28;20039;-87
2024/01/22 02:06:36;;;;;;;2.42;1.92;;;;;;;;;;10235593;28;20047;-89
2024/01/22 02:11:40;;;;;;;4.07;2.22;;;;;;;;;;10231004;28;20062;-88
2024/01/22 02:16:44;;;;;;;5.30;2.28;;;;;;;;;;10236034;28;20433;-88
2024/01/22 02:21:48;;;;;;;8.48;2.70;;;;;;;;;;10259765;28;20071;-88
2024/01/22 02:26:53;;;;;;;3.50;2.33;;;;;;;;;;10237249;28;20113;-88
2024/01/22 02:31:56;;;;;;;2.45;1.67;;;;;;;;;;10229364;28;20054;-88
2024/01/22 02:37:00;;;;;;;4.20;2.15;;;;;;;;;;10237678;28;20485;-88
2024/01/22 02:42:05;;;;;;;4.47;2.17;;;;;;;;;;10233118;28;20062;-88
2024/01/22 02:47:08;;;;;;;3.33;2.15;;;;;;;;;;10238359;28;20050;-89
2024/01/22 02:52:12;;;;;;;3.60;1.95;;;;;;;;;;10236862;28;20043;-88
2024/01/22 02:57:17;;;;;;;4.53;1.95;;;;;;;;;;10231655;28;20055;-88
2024/01/22 03:02:20;;;;;;;7.53;2.65;;;;;;;;;;10234348;28;20083;-89
2024/01/22 03:07:24;;;;;;;3.83;1.95;;;;;;;;;;10231339;28;20067;-88
2024/01/22 03:12:28;;;;;;;3.03;2.08;;;;;;;;;;10235266;28;20111;-88
2024/01/22 03:17:32;;;;;;;4.10;1.98;;;;;;;;;;10227926;28;20056;-89
2024/01/22 03:22:35;;;;;;;4.45;1.88;;;;;;;;;;10252686;28;20051;-85
2024/01/22 03:27:40;;;;;;;2.95;1.33;;;;;;;;;;10222879;28;20063;-89
2024/01/22 03:32:43;;;;;;;2.53;1.50;;;;;;;;;;10230568;28;20492;-88
2024/01/22 03:37:47;;;;;;;2.38;1.50;;;;;;;;;;10225133;28;20070;-88
2024/01/22 03:42:51;;;;;;;3.05;1.38;;;;;;;;;;10236143;28;20099;-89
2024/01/22 03:47:55;;;;;;;3.35;1.45;;;;;;;;;;10236492;28;20055;-89
2024/01/22 03:52:58;;;;;;;3.67;1.48;;;;;;;;;;10243520;28;20050;-90
2024/01/22 03:58:03;;;;;;;5.38;1.70;;;;;;;;;;10244942;28;20417;-88
2024/01/22 04:03:08;;;;;;;4.78;1.85;;;;;;;;;;10232606;28;20070;-89
2024/01/22 04:08:11;;;;;;;3.13;1.27;;;;;;;;;;10232406;28;20531;-88
2024/01/22 04:13:16;;;;;;;4.53;1.77;;;;;;;;;;10241706;28;20106;-90
2024/01/22 04:18:19;;;;;;;2.88;1.67;;;;;;;;;;10240710;28;20055;-89
2024/01/22 04:23:23;;;;;;;5.22;1.83;;;;;;;;;;10237575;28;20077;-87
2024/01/22 04:28:28;;;;;;;2.67;1.38;;;;;;;;;;10247170;28;20090;-86
2024/01/22 04:33:31;;;;;;;5.07;1.67;;;;;;;;;;10246248;28;20058;-90
2024/01/22 04:38:35;;;;;;;3.85;1.40;;;;;;;;;;10241309;28;20106;-89
2024/01/22 04:43:42;;;;;;;6.75;2.10;;;;;;;;;;10238244;28;20043;-90
2024/01/22 04:48:46;;;;;;;4.32;1.50;;;;;;;;;;10254478;28;20052;-87
2024/01/22 04:53:49;;;;;;;4.05;1.48;;;;;;;;;;10224028;28;20578;-87
2024/01/22 04:58:54;;;;;;;4.80;1.80;;;;;;;;;;10254953;28;20058;-90
2024/01/22 05:03:58;;;;;;;3.53;1.60;;;;;;;;;;10248108;28;20047;-90
2024/01/22 05:09:32;;;;;;;3.85;1.83;;;;;;;;;;10257423;23;20514;-90
2024/01/22 05:14:40;;;;;;;3.05;1.35;;;;;;;;;;10199348;29;21425;-91
2024/01/22 05:19:44;;;;;;;3.05;1.40;;;;;;;;;;10207817;28;20099;-93
2024/01/22 05:24:47;;;;;;;3.13;1.50;;;;;;;;;;10200706;29;20058;-93
2024/01/22 05:29:58;;;;;;;2.90;1.48;;;;;;;;;;10201686;28;20151;-93
2024/01/22 05:35:34;;;;;;;2.25;1.27;;;;;;;;;;10201234;29;20066;-93
2024/01/22 05:40:38;;;;;;;1.98;1.13;;;;;;;;;;10204457;28;20044;-91
2024/01/22 05:45:43;;;;;;;1.52;1.20;;;;;;;;;;10208173;28;20047;-91
2024/01/22 05:50:49;;;;;;;2.63;1.33;;;;;;;;;;10171694;29;20047;-90
2024/01/22 05:55:53;;;;;;;2.72;1.20;;;;;;;;;;10195228;28;20056;-89
2024/01/22 06:01:05;;;;;;;2.50;1.30;;;;;;;;;;10190812;28;20074;-90
2024/01/22 06:06:08;;;;;;;2.28;1.13;;;;;;;;;;10192808;29;20055;-90
2024/01/22 06:11:15;;;;;;;1.60;0.95;;;;;;;;;;10170276;29;20067;-89
2024/01/22 06:16:21;;;;;;;2.85;1.40;;;;;;;;;;10186095;29;20430;-90
2024/01/22 06:21:30;;;;;;;1.65;1.00;;;;;;;;;;10179704;29;20051;-90
2024/01/22 06:26:33;;;;;;;1.13;1.02;;;;;;;;;;10182572;29;20507;-89
2024/01/22 06:31:41;;;;;;;2.42;1.42;;;;;;;;;;10190517;28;20084;-89
2024/01/22 06:36:44;;;;;;;2.13;1.15;;;;;;;;;;10189932;28;20044;-89
2024/01/22 06:41:48;;;;;;;2.13;1.10;;;;;;;;;;10189247;29;20415;-89
2024/01/22 06:46:55;;;;;;;2.63;1.20;;;;;;;;;;10192022;28;20055;-89
2024/01/22 06:51:59;;;;;;;2.40;1.13;;;;;;;;;;10187997;28;20047;-89
2024/01/22 06:57:03;;;;;;;2.22;1.40;;;;;;;;;;10182795;28;20141;-88
2024/01/22 07:02:09;;;;;;;2.60;1.30;;;;;;;;;;10191714;29;20091;-89
2024/01/22 07:07:14;;;;;;;2.13;1.20;;;;;;;;;;10189719;28;20056;-87
2024/01/22 07:12:19;;;;;;;2.43;1.20;;;;;;;;;;10185174;28;20179;-85
2024/01/22 07:17:24;;;;;;;1.60;0.88;;;;;;;;;;10189517;28;20130;-85
2024/01/22 07:22:31;;;;;;;1.15;1.00;;;;;;;;;;10186979;28;20060;-86
2024/01/22 07:27:39;;;;;;;2.53;1.10;;;;;;;;;;10193913;28;20051;-85
2024/01/22 07:32:49;;;;;;;1.48;1.10;;;;;;;;;;10194334;28;20619;-86
2024/01/22 07:37:54;;;;;;;2.20;1.00;;;;;;;;;;10186582;28;20062;-85
2024/01/22 07:43:05;;;;;;;2.00;1.00;;;;;;;;;;10187816;28;20131;-88
2024/01/22 07:48:17;;;;;;;1.65;0.82;;;;;;;;;;10188756;29;20075;-91
2024/01/22 07:53:21;;;;;;;1.25;0.90;;;;;;;;;;10189306;28;20338;-86
2024/01/22 07:58:27;;;;;;;2.20;1.05;;;;;;;;;;10187528;28;20059;-86
2024/01/22 08:03:32;;;;;;;0.88;0.80;;;;;;;;;;10190429;28;20602;-88
2024/01/22 08:08:43;;;;;;;1.25;0.73;;;;;;;;;;10195738;28;20044;-86
2024/01/22 08:13:46;;;;;;;1.95;0.80;;;;;;;;;;10185954;28;20052;-87
2024/01/22 08:18:54;;;;;;;1.67;0.90;;;;;;;;;;10185563;28;20087;-86
2024/01/22 08:23:57;;;;;;;1.45;1.30;;;;;;;;;;10186584;28;20055;-86
2024/01/22 08:29:07;;;;;;;1.13;0.98;;;;;;;;;;10193152;28;20143;-85
2024/01/22 08:34:12;;;;;;;1.70;1.17;;;;;;;;;;10190509;28;20130;-87
2024/01/22 08:39:21;;;;;;;1.50;1.33;;;;;;;;;;10182060;28;20388;-87
2024/01/22 08:44:24;;;;;;;2.53;1.50;;;;;;;;;;10188784;28;20146;-86
2024/01/22 08:49:32;;;;;;;0.85;0.80;;;;;;;;;;10191029;28;20056;-88
2024/01/22 08:54:42;;;;;;;1.92;1.05;;;;;;;;;;10184592;28;20561;-85
2024/01/22 08:59:45;;;;;;;1.10;0.80;;;;;;;;;;10186218;28;20118;-85
2024/01/22 09:04:50;;;;;;;0.70;0.70;;;;;;;;;;10184327;29;20107;-85
2024/01/22 09:09:53;;;;;;;0.73;0.50;;;;;;;;;;10192466;28;20310;-84
2024/01/22 09:15:00;;;;;;;0.50;0.50;;;;;;;;;;10193552;28;20403;-84
2024/01/22 09:20:08;;;;;;;0.60;0.45;;;;;;;;;;10185854;28;20795;-83
2024/01/22 09:25:12;;;;;;;0.75;0.57;;;;;;;;;;10185604;28;20048;-84
2024/01/22 09:30:15;;;;;;;0.45;0.43;;;;;;;;;;10177600;28;20503;-84
2024/01/22 09:35:30;;;;;;;2.03;0.50;;;;;;;;;;10186586;29;20398;-84
2024/01/22 09:40:34;;;;;;;0.80;0.77;;;;;;;;;;10183412;28;20490;-84
2024/01/22 09:45:38;;;;;;;0.68;0.50;;;;;;;;;;10180566;29;20140;-84
2024/01/22 09:50:42;;;;;;;1.15;0.88;;;;;;;;;;10186562;28;20067;-84
2024/01/22 09:55:51;;;;;;;0.80;0.70;;;;;;;;;;10204602;28;20048;-84
2024/01/22 10:00:55;;;;;;;0.90;0.60;;;;;;;;;;10186143;28;20139;-84
2024/01/22 10:06:05;;;;;;;0.60;0.57;;;;;;;;;;10176983;28;20063;-84
2024/01/22 10:11:10;;;;;;;0.95;0.63;;;;;;;;;;10185809;28;20547;-83
2024/01/22 10:16:14;;;;;;;0.77;0.73;;;;;;;;;;10179640;29;20142;-84
2024/01/22 10:21:24;;;;;;;1.35;1.20;;;;;;;;;;10178308;29;20531;-84
2024/01/22 10:26:31;;;;;;;1.70;0.98;;;;;;;;;;10178664;29;20051;-83
2024/01/22 10:31:56;;;;;;;0.73;0.63;;;;;;;;;;10179809;29;20047;-83
2024/01/22 10:37:13;;;;;;;0.68;0.65;;;;;;;;;;10179667;29;20523;-84
2024/01/22 10:42:18;;;;;;;2.63;1.10;;;;;;;;;;10176722;29;20052;-85
2024/01/22 10:47:32;;;;;;;2.28;1.20;;;;;;;;;;10178738;28;20055;-84
2024/01/22 10:52:39;;;;;;;1.98;1.33;;;;;;;;;;10186848;28;20051;-84
2024/01/22 10:57:44;;;;;;;1.25;1.00;;;;;;;;;;10176839;29;20048;-84
2024/01/22 11:02:56;;;;;;;1.25;0.80;;;;;;;;;;10173939;28;20126;-85
2024/01/22 11:08:02;;;;;;;0.75;0.75;;;;;;;;;;10179804;29;20114;-84
2024/01/22 11:13:09;;;;;;;0.50;0.50;;;;;;;;;;10180335;28;20059;-84
2024/01/22 11:18:12;;;;;;;0.75;0.60;;;;;;;;;;10163178;29;20056;-83
2024/01/22 11:23:20;;;;;;;0.60;0.60;;;;;;;;;;10178762;28;20052;-83
2024/01/22 11:28:24;;;;;;;0.73;0.70;;;;;;;;;;10179891;28;20071;-84
2024/01/22 11:33:34;;;;;;;0.60;0.60;;;;;;;;;;10180805;28;20055;-84
2024/01/22 11:38:53;;;;;;;2.33;0.95;;;;;;;;;;10180352;28;20051;-83
2024/01/22 11:43:57;;;;;;;1.00;0.77;;;;;;;;;;10178670;28;20063;-84
2024/01/22 11:49:12;;;;;;;3.50;0.80;;;;;;;;;;10181289;28;20047;-84
2024/01/22 11:54:17;;;;;;;0.63;0.63;;;;;;;;;;10174258;28;20415;-84
2024/01/22 11:59:28;;;;;;;0.88;0.80;;;;;;;;;;10183467;28;20048;-84
2024/01/22 12:04:31;;;;;;;0.30;0.30;;;;;;;;;;10186659;28;20059;-84
2024/01/22 12:09:42;;;;;;;0.98;0.55;;;;;;;;;;10191451;29;20110;-84
2024/01/22 12:14:58;;;;;;;1.42;1.00;;;;;;;;;;10187739;29;20070;-84
2024/01/22 12:20:02;;;;;;;0.60;0.60;;;;;;;;;;10183141;28;20488;-84
2024/01/22 12:25:12;;;;;;;0.57;0.50;;;;;;;;;;10187258;28;20586;-84
2024/01/22 12:30:21;;;;;;;2.03;0.68;;;;;;;;;;10189469;28;20467;-85
2024/01/22 12:35:25;;;;;;;0.65;0.40;;;;;;;;;;10184838;28;20603;-84
2024/01/22 12:40:29;;;;;;;1.30;0.75;;;;;;;;;;10194899;29;20064;-85
2024/01/22 12:45:36;;;;;;;0.90;0.60;;;;;;;;;;10184515;29;20059;-85
2024/01/22 12:50:39;;;;;;;1.38;0.60;;;;;;;;;;10181382;29;20230;-84
2024/01/22 12:55:47;;;;;;;0.73;0.60;;;;;;;;;;10181496;29;20059;-83
2024/01/22 13:00:50;;;;;;;0.73;0.50;;;;;;;;;;10184754;29;20566;-83
2024/01/22 13:06:00;;;;;;;1.80;0.90;;;;;;;;;;10188224;28;20071;-83
2024/01/22 13:11:05;;;;;;;0.80;0.47;;;;;;;;;;10186115;28;20135;-83
2024/01/22 13:16:08;;;;;;;2.00;0.70;;;;;;;;;;10200436;28;20573;-83
2024/01/22 13:21:19;;;;;;;2.95;0.85;;;;;;;;;;10178521;29;20058;-84
2024/01/22 13:26:24;;;;;;;2.03;0.75;;;;;;;;;;10182812;28;20474;-83
2024/01/22 13:31:32;;;;;;;2.72;0.63;;;;;;;;;;10183653;28;20147;-84
2024/01/22 13:36:35;;;;;;;1.83;0.80;;;;;;;;;;10181691;28;20452;-84
2024/01/22 13:41:48;;;;;;;1.58;0.93;;;;;;;;;;10182384;28;20059;-85
2024/01/22 13:46:52;;;;;;;1.30;0.90;;;;;;;;;;10172569;28;20040;-84
2024/01/22 13:52:04;;;;;;;1.60;0.90;;;;;;;;;;10180453;28;20059;-84
2024/01/22 13:57:18;;;;;;;1.45;0.77;;;;;;;;;;10166682;28;20059;-83
2024/01/22 14:02:26;;;;;;;1.80;1.00;;;;;;;;;;10175740;28;20115;-83
2024/01/22 14:07:30;;;;;;;1.15;0.95;;;;;;;;;;10175674;28;20393;-84
2024/01/22 14:12:36;;;;;;;3.10;1.70;;;;;;;;;;10181254;28;20068;-84
2024/01/22 14:17:40;;;;;;;2.80;1.50;;;;;;;;;;10184745;28;20608;-83
2024/01/22 14:22:43;;;;;;;1.30;0.90;;;;;;;;;;10179087;28;20763;-83
2024/01/22 14:27:50;;;;;;;1.70;0.90;;;;;;;;;;10181744;28;20067;-83
2024/01/22 14:32:54;;;;;;;2.88;0.90;;;;;;;;;;10180000;29;20115;-83
2024/01/22 14:38:00;;;;;;;3.13;1.00;;;;;;;;;;10177637;28;20103;-84
2024/01/22 14:43:05;;;;;;;3.38;1.15;;;;;;;;;;10169328;29;20500;-85
2024/01/22 14:48:09;;;;;;;7.60;1.80;;;;;;;;;;10177406;28;20142;-84
2024/01/22 14:53:12;;;;;;;4.38;1.73;;;;;;;;;;10179518;29;20671;-83
2024/01/22 14:58:18;;;;;;;4.10;1.23;;;;;;;;;;10188805;29;20052;-83
2024/01/22 15:03:23;;;;;;;4.22;1.08;;;;;;;;;;10179140;28;20047;-83
2024/01/22 15:08:28;;;;;;;7.50;1.45;;;;;;;;;;10170906;29;20052;-84
2024/01/22 15:13:33;;;;;;;4.43;1.40;;;;;;;;;;10162687;28;20769;-83
2024/01/22 15:18:41;;;;;;;6.45;1.60;;;;;;;;;;10178551;29;20134;-84
2024/01/22 15:23:49;;;;;;;5.68;1.33;;;;;;;;;;10175847;28;20282;-84
2024/01/22 15:28:56;;;;;;;3.78;1.05;;;;;;;;;;10176986;28;20133;-82
2024/01/22 15:33:59;;;;;;;1.98;1.00;;;;;;;;;;10180598;28;20652;-83
2024/01/22 15:39:04;;;;;;;3.15;1.33;;;;;;;;;;10185825;28;20079;-83
2024/01/22 15:44:10;;;;;;;5.35;1.27;;;;;;;;;;10187979;29;20062;-83
2024/01/22 15:49:14;;;;;;;4.55;1.63;;;;;;;;;;10193309;28;20054;-86
2024/01/22 15:54:17;;;;;;;4.05;1.13;;;;;;;;;;10199348;28;20079;-91
2024/01/22 15:59:22;;;;;;;6.55;1.83;;;;;;;;;;10197814;28;20653;-86
2024/01/22 16:04:25;;;;;;;4.65;1.40;;;;;;;;;;10193204;28;20064;-85
2024/01/22 16:09:29;;;;;;;8.18;1.80;;;;;;;;;;10189703;28;20047;-87
2024/01/22 16:14:33;;;;;;;6.65;2.35;;;;;;;;;;10192030;28;20054;-86
2024/01/22 16:19:37;;;;;;;4.15;1.52;;;;;;;;;;10192043;28;20060;-90
2024/01/22 16:24:43;;;;;;;5.05;1.55;;;;;;;;;;10201466;29;20058;-85
2024/01/22 16:29:50;;;;;;;6.03;1.83;;;;;;;;;;10201628;28;20051;-90
2024/01/22 16:34:54;;;;;;;4.65;2.40;;;;;;;;;;10202188;29;20074;-86
2024/01/22 16:39:58;;;;;;;4.63;1.88;;;;;;;;;;10199307;29;20416;-87
2024/01/22 16:45:03;;;;;;;5.90;2.25;;;;;;;;;;10191651;29;20071;-87
2024/01/22 16:50:07;;;;;;;4.03;1.77;;;;;;;;;;10199149;29;20051;-87
2024/01/22 16:55:10;;;;;;;4.53;2.85;;;;;;;;;;10197603;28;20078;-86
2024/01/22 17:00:20;;;;;;;4.00;2.40;;;;;;;;;;10195471;29;20067;-87
2024/01/22 17:05:23;;;;;;;4.45;2.50;;;;;;;;;;10181124;29;20055;-87
2024/01/22 17:10:26;;;;;;;7.25;2.70;;;;;;;;;;10192719;23;20531;-76
2024/01/22 17:15:31;;;;;;;7.72;2.55;;;;;;;;;;10159389;28;20048;-77
2024/01/22 17:20:34;;;;;;;12.07;3.17;;;;;;;;;;10163061;29;20059;-77
2024/01/22 17:25:38;;;;;;;8.85;2.85;;;;;;;;;;10161187;29;20054;-77
2024/01/22 17:30:42;;;;;;;12.02;3.00;;;;;;;;;;10157679;29;20051;-77
2024/01/22 17:35:45;;;;;;;11.85;3.45;;;;;;;;;;10162350;29;20052;-77
2024/01/22 17:40:49;;;;;;;11.00;2.70;;;;;;;;;;10162572;29;20048;-77
2024/01/22 17:45:53;;;;;;;11.88;2.55;;;;;;;;;;10160587;29;20048;-76
2024/01/22 17:50:57;;;;;;;13.85;2.97;;;;;;;;;;10162386;29;20048;-76
2024/01/22 17:56:02;;;;;;;12.80;4.45;;;;;;;;;;10161809;29;20076;-76
2024/01/22 18:01:07;;;;;;;14.85;4.93;;;;;;;;;;10151401;29;20668;-77
2024/01/22 18:06:10;;;;;;;12.43;3.15;;;;;;;;;;10155654;29;20134;-77
2024/01/22 18:11:15;;;;;;;14.02;3.30;;;;;;;;;;10158091;29;20512;-77
2024/01/22 18:16:20;;;;;;;16.58;3.08;;;;;;;;;;10152125;29;20840;-76
2024/01/22 18:21:23;;;;;;;14.55;3.30;;;;;;;;;;10158104;29;20593;-76
2024/01/22 18:26:26;;;;;;;16.17;4.05;;;;;;;;;;10157588;29;20123;-77
2024/01/22 18:31:31;;;;;;;13.70;3.22;;;;;;;;;;10159118;29;20133;-76
2024/01/22 18:36:34;;;;;;;10.43;2.80;;;;;;;;;;10158019;29;20423;-77
2024/01/22 18:41:39;;;;;;;10.57;3.35;;;;;;;;;;10163208;29;20040;-78
2024/01/22 18:46:43;;;;;;;14.32;5.10;;;;;;;;;;10146716;29;20052;-76
2024/01/22 18:51:47;;;;;;;19.10;6.28;;;;;;;;;;10157848;29;20485;-76
2024/01/22 18:56:50;;;;;;;15.35;6.50;;;;;;;;;;10159999;29;20142;-76
2024/01/22 19:01:55;;;;;;;20.27;7.50;;;;;;;;;;10152705;29;20072;-77
2024/01/22 19:06:58;;;;;;;15.98;5.22;;;;;;;;;;10153432;29;20071;-76
2024/01/22 19:12:02;;;;;;;19.85;6.05;;;;;;;;;;10163091;29;20066;-77
2024/01/22 19:17:06;;;;;;;16.08;4.80;;;;;;;;;;10160892;29;20087;-76
2024/01/22 19:22:09;;;;;;;17.25;4.60;;;;;;;;;;10143359;29;20076;-77
2024/01/22 19:27:14;;;;;;;10.75;3.63;;;;;;;;;;10156348;29;20056;-76
2024/01/22 19:32:19;;;;;;;13.30;3.72;;;;;;;;;;10165264;29;20044;-76
2024/01/22 19:37:22;;;;;;;17.33;4.25;;;;;;;;;;10165222;29;20052;-76
2024/01/22 19:42:26;;;;;;;14.93;4.18;;;;;;;;;;10160684;29;20053;-77
2024/01/22 19:47:30;;;;;;;12.73;3.60;;;;;;;;;;10158751;29;20059;-77
2024/01/22 19:52:34;;;;;;;13.07;3.45;;;;;;;;;;10163850;29;20059;-77
2024/01/22 19:57:37;;;;;;;15.82;3.67;;;;;;;;;;10159625;29;20048;-76
2024/01/22 20:02:44;;;;;;;12.90;3.72;;;;;;;;;;10162847;29;20728;-76
2024/01/22 20:07:52;;;;;;;14.05;4.00;;;;;;;;;;10158344;29;20540;-77
2024/01/22 20:12:55;;;;;;;14.40;4.07;;;;;;;;;;10164938;29;20053;-76
2024/01/22 20:18:00;;;;;;;12.02;4.75;;;;;;;;;;10165465;29;20052;-76
2024/01/22 20:23:06;;;;;;;17.60;3.90;;;;;;;;;;10161189;29;20084;-77
2024/01/22 20:28:09;;;;;;;10.52;3.38;;;;;;;;;;10157719;29;20063;-76
2024/01/22 20:33:14;;;;;;;10.93;4.03;;;;;;;;;;10158674;29;20067;-77
2024/01/22 20:38:17;;;;;;;17.80;3.90;;;;;;;;;;10163015;29;20221;-77
2024/01/22 20:43:20;;;;;;;10.73;2.85;;;;;;;;;;10162127;29;20131;-77
2024/01/22 20:48:25;;;;;;;11.85;3.40;;;;;;;;;;10162230;29;20051;-77
2024/01/22 20:53:29;;;;;;;11.52;2.85;;;;;;;;;;10162631;29;20052;-77
2024/01/22 20:58:32;;;;;;;10.07;2.72;;;;;;;;;;10161466;29;20056;-77
2024/01/22 21:03:38;;;;;;;9.77;3.03;;;;;;;;;;10163003;29;20420;-77
2024/01/22 21:08:41;;;;;;;10.65;2.67;;;;;;;;;;10162460;29;20103;-76
2024/01/22 21:13:44;;;;;;;13.82;3.88;;;;;;;;;;10161468;29;20084;-76
2024/01/22 21:18:49;;;;;;;12.00;2.90;;;;;;;;;;10151994;29;20054;-75
2024/01/22 21:23:54;;;;;;;13.27;3.25;;;;;;;;;;10158651;29;20055;-76
2024/01/22 21:28:57;;;;;;;11.55;3.15;;;;;;;;;;10159900;29;20090;-76
2024/01/22 21:34:05;;;;;;;13.75;3.38;;;;;;;;;;10160203;29;20802;-76
2024/01/22 21:39:09;;;;;;;11.43;3.25;;;;;;;;;;10159425;29;21184;-76
2024/01/22 21:44:12;;;;;;;19.90;5.28;;;;;;;;;;10156006;29;20119;-76
2024/01/22 21:49:17;;;;;;;18.65;6.05;;;;;;;;;;10159689;29;20060;-75
2024/01/22 21:54:20;;;;;;;15.07;4.75;;;;;;;;;;10157250;29;20139;-75
2024/01/22 21:59:24;;;;;;;18.95;6.38;;;;;;;;;;10158638;29;21022;-76
2024/01/22 22:04:29;;;;;;;13.38;3.55;;;;;;;;;;10151402;29;20052;-76
2024/01/22 22:09:32;;;;;;;8.88;3.08;;;;;;;;;;10157196;29;20112;-76
2024/01/22 22:14:35;;;;;;;9.05;2.78;;;;;;;;;;10157740;29;20056;-76
2024/01/22 22:19:40;;;;;;;15.32;2.88;;;;;;;;;;10158569;29;20132;-75
2024/01/22 22:24:43;;;;;;;11.68;2.85;;;;;;;;;;10156619;29;20488;-75
2024/01/22 22:29:46;;;;;;;12.25;2.85;;;;;;;;;;10165180;29;20047;-75
2024/01/22 22:34:51;;;;;;;9.82;2.50;;;;;;;;;;10154504;29;20052;-76
2024/01/22 22:39:54;;;;;;;8.95;2.30;;;;;;;;;;10154742;29;20574;-76
2024/01/22 22:44:58;;;;;;;12.40;2.88;;;;;;;;;;10156259;29;20048;-76
2024/01/22 22:50:02;;;;;;;10.25;2.42;;;;;;;;;;10154274;29;20143;-76
2024/01/22 22:55:06;;;;;;;13.27;2.33;;;;;;;;;;10155557;29;20456;-75
2024/01/22 23:00:12;;;;;;;12.55;2.63;;;;;;;;;;10155244;29;20071;-75
2024/01/22 23:05:17;;;;;;;17.80;2.90;;;;;;;;;;10155570;29;20099;-75
2024/01/22 23:10:20;;;;;;;13.63;3.15;;;;;;;;;;10182041;23;20052;-75
2024/01/22 23:15:24;;;;;;;13.40;3.20;;;;;;;;;;10187048;29;20130;-74
2024/01/22 23:20:29;;;;;;;11.00;2.75;;;;;;;;;;10161121;29;20147;-75
2024/01/22 23:25:32;;;;;;;10.70;2.78;;;;;;;;;;10157147;29;20559;-75
2024/01/22 23:30:35;;;;;;;11.43;2.80;;;;;;;;;;10151886;29;20049;-74
2024/01/22 23:35:40;;;;;;;9.40;2.83;;;;;;;;;;10156346;29;20761;-75
2024/01/22 23:40:43;;;;;;;14.02;3.00;;;;;;;;;;10144798;29;20080;-75
2024/01/22 23:45:47;;;;;;;14.70;3.17;;;;;;;;;;10155528;29;20048;-75
2024/01/22 23:50:51;;;;;;;12.60;2.50;;;;;;;;;;10156212;29;20063;-75
2024/01/22 23:55:55;;;;;;;10.85;2.80;;;;;;;;;;10157956;29;20049;-75
